Time;durP1;ratioP1;P1;durP2;ratioP2;P2;SDS_P1;SDS_P2;PMS_P1;PMS_P2;Temp;Humidity;BMP_temperature;BMP_pressure;BME280_temperature;BME280_humidity;BME280_pressure;Samples;Min_cycle;Max_cycle;Signal;HPM_P1;HPM_P2
2024/01/04 00:01:33;;;;;;;23.85;14.63;;;;;;;;;;6251248;28;20068;-74
2024/01/04 00:04:35;;;;;;;21.92;14.68;;;;;;;;;;6280460;28;20060;-74
2024/01/04 00:07:38;;;;;;;25.60;15.05;;;;;;;;;;6252472;28;20145;-75
2024/01/04 00:10:40;;;;;;;27.70;17.08;;;;;;;;;;6247989;28;20343;-75
2024/01/04 00:13:44;;;;;;;22.38;14.90;;;;;;;;;;6250965;28;20068;-75
2024/01/04 00:16:45;;;;;;;24.25;15.60;;;;;;;;;;6253434;28;20057;-74
2024/01/04 00:19:47;;;;;;;23.55;15.77;;;;;;;;;;6250308;28;20050;-75
2024/01/04 00:22:49;;;;;;;26.77;15.98;;;;;;;;;;6232333;28;20065;-74
2024/01/04 00:25:53;;;;;;;26.67;15.45;;;;;;;;;;6249088;28;20286;-74
2024/01/04 00:28:57;;;;;;;23.55;15.45;;;;;;;;;;6249660;28;20061;-74
2024/01/04 00:31:58;;;;;;;26.20;15.30;;;;;;;;;;6250280;28;20053;-74
2024/01/04 00:35:01;;;;;;;23.60;15.90;;;;;;;;;;6251331;28;20053;-74
2024/01/04 00:38:03;;;;;;;25.92;15.13;;;;;;;;;;6250640;28;20064;-75
2024/01/04 00:41:05;;;;;;;23.58;15.13;;;;;;;;;;6249255;28;20057;-75
2024/01/04 00:44:08;;;;;;;26.60;17.02;;;;;;;;;;6251353;28;20064;-73
2024/01/04 00:47:10;;;;;;;28.00;16.60;;;;;;;;;;6250253;28;20056;-75
2024/01/04 00:50:12;;;;;;;27.60;17.20;;;;;;;;;;6247583;28;20370;-74
2024/01/04 00:53:14;;;;;;;28.35;17.85;;;;;;;;;;6249913;28;20056;-79
2024/01/04 00:56:16;;;;;;;38.15;18.98;;;;;;;;;;6251524;28;20049;-80
2024/01/04 00:59:21;;;;;;;27.10;17.83;;;;;;;;;;6251626;28;20057;-79
2024/01/04 01:02:25;;;;;;;27.58;16.65;;;;;;;;;;6246104;28;20088;-79
2024/01/04 01:05:27;;;;;;;32.30;16.83;;;;;;;;;;6252493;28;20049;-78
2024/01/04 01:08:29;;;;;;;31.33;16.80;;;;;;;;;;6250874;28;20060;-78
2024/01/04 01:11:31;;;;;;;26.60;16.38;;;;;;;;;;6250931;28;20049;-80
2024/01/04 01:14:34;;;;;;;27.15;16.90;;;;;;;;;;6250844;28;20076;-80
2024/01/04 01:17:36;;;;;;;27.13;15.95;;;;;;;;;;6250596;28;20080;-79
2024/01/04 01:20:38;;;;;;;26.05;15.95;;;;;;;;;;6250239;28;20115;-82
2024/01/04 01:23:40;;;;;;;23.90;14.95;;;;;;;;;;6250976;28;20045;-80
2024/01/04 01:26:44;;;;;;;25.02;15.98;;;;;;;;;;6250649;28;20049;-80
2024/01/04 01:29:47;;;;;;;25.20;15.63;;;;;;;;;;6251593;28;20068;-80
2024/01/04 01:32:49;;;;;;;28.48;15.88;;;;;;;;;;6251687;28;20057;-81
2024/01/04 01:35:51;;;;;;;25.88;16.48;;;;;;;;;;6287513;28;20053;-78
2024/01/04 01:38:53;;;;;;;26.13;16.42;;;;;;;;;;6255371;28;20064;-79
2024/01/04 01:41:55;;;;;;;22.13;15.45;;;;;;;;;;6284740;28;20046;-81
2024/01/04 01:44:59;;;;;;;29.63;17.25;;;;;;;;;;6254829;28;20122;-80
2024/01/04 01:48:02;;;;;;;29.77;16.50;;;;;;;;;;6255252;28;20057;-80
2024/01/04 01:51:05;;;;;;;28.00;17.70;;;;;;;;;;6254710;28;20151;-80
2024/01/04 01:54:07;;;;;;;29.85;17.75;;;;;;;;;;6287331;28;20057;-79
2024/01/04 01:57:10;;;;;;;29.33;18.65;;;;;;;;;;6253434;28;20045;-79
2024/01/04 02:00:15;;;;;;;26.48;18.27;;;;;;;;;;6255234;28;20057;-80
2024/01/04 02:03:17;;;;;;;28.92;17.75;;;;;;;;;;6255542;28;20057;-74
2024/01/04 02:06:19;;;;;;;28.73;17.58;;;;;;;;;;6234247;28;20057;-75
2024/01/04 02:09:21;;;;;;;27.45;17.52;;;;;;;;;;6250830;28;20072;-74
2024/01/04 02:12:23;;;;;;;27.98;17.73;;;;;;;;;;6252431;28;20050;-75
2024/01/04 02:15:26;;;;;;;29.55;17.90;;;;;;;;;;6283273;28;20065;-75
2024/01/04 02:18:28;;;;;;;32.50;19.42;;;;;;;;;;6255561;28;20072;-74
2024/01/04 02:21:31;;;;;;;31.23;17.90;;;;;;;;;;6253967;28;20060;-74
2024/01/04 02:24:34;;;;;;;28.48;18.45;;;;;;;;;;6284665;28;20110;-75
2024/01/04 02:27:36;;;;;;;30.73;18.17;;;;;;;;;;6267419;28;20245;-75
2024/01/04 02:30:38;;;;;;;35.17;20.23;;;;;;;;;;6250960;28;20049;-76
2024/01/04 02:33:40;;;;;;;29.00;18.77;;;;;;;;;;6252644;28;20115;-75
2024/01/04 02:36:42;;;;;;;29.15;18.63;;;;;;;;;;6249660;28;20060;-75
2024/01/04 02:39:45;;;;;;;31.15;19.05;;;;;;;;;;6252182;28;20053;-75
2024/01/04 02:42:47;;;;;;;30.27;19.13;;;;;;;;;;6283715;28;20057;-74
2024/01/04 02:45:49;;;;;;;30.00;18.63;;;;;;;;;;6250170;28;20053;-75
2024/01/04 02:48:51;;;;;;;28.80;17.52;;;;;;;;;;6252738;28;20237;-74
2024/01/04 02:51:53;;;;;;;31.92;18.50;;;;;;;;;;6251607;28;20082;-74
2024/01/04 02:54:58;;;;;;;29.98;18.38;;;;;;;;;;6251943;28;20306;-75
2024/01/04 02:57:59;;;;;;;28.95;18.83;;;;;;;;;;6227827;28;20060;-74
2024/01/04 03:01:02;;;;;;;31.02;18.70;;;;;;;;;;6207219;28;20351;-73
2024/01/04 03:04:04;;;;;;;31.73;18.70;;;;;;;;;;6230228;28;20068;-74
2024/01/04 03:07:06;;;;;;;34.13;19.33;;;;;;;;;;6227541;28;20069;-75
2024/01/04 03:10:11;;;;;;;31.30;19.80;;;;;;;;;;6226962;28;20482;-75
2024/01/04 03:13:13;;;;;;;33.38;19.75;;;;;;;;;;6227003;28;20050;-75
2024/01/04 03:16:15;;;;;;;34.95;19.30;;;;;;;;;;6226320;28;20348;-75
2024/01/04 03:19:16;;;;;;;32.55;21.08;;;;;;;;;;6226550;28;20058;-74
2024/01/04 03:22:18;;;;;;;39.47;19.88;;;;;;;;;;6223715;28;20041;-75
2024/01/04 03:25:22;;;;;;;28.83;17.58;;;;;;;;;;6227265;28;20356;-74
2024/01/04 03:28:23;;;;;;;33.27;19.50;;;;;;;;;;6225835;28;20053;-75
2024/01/04 03:31:25;;;;;;;33.35;18.65;;;;;;;;;;6225299;28;20455;-75
2024/01/04 03:34:30;;;;;;;32.92;19.73;;;;;;;;;;6225466;28;20133;-75
2024/01/04 03:37:31;;;;;;;;;;;;;;;;;;6228183;28;20060;-74
2024/01/04 03:40:35;;;;;;;33.33;18.52;;;;;;;;;;6225759;28;20216;-74
2024/01/04 03:43:36;;;;;;;34.93;20.07;;;;;;;;;;6225160;28;20053;-74
2024/01/04 03:46:38;;;;;;;30.13;20.05;;;;;;;;;;6226618;28;20088;-74
2024/01/04 03:49:40;;;;;;;32.67;20.05;;;;;;;;;;6209364;28;20057;-74
2024/01/04 03:52:42;;;;;;;34.85;19.45;;;;;;;;;;6226981;28;20053;-75
2024/01/04 03:55:45;;;;;;;38.50;20.65;;;;;;;;;;6229918;28;20069;-75
2024/01/04 03:58:48;;;;;;;37.03;20.70;;;;;;;;;;6250785;28;20189;-74
2024/01/04 04:01:50;;;;;;;35.17;19.83;;;;;;;;;;6242980;28;20077;-74
2024/01/04 04:04:51;;;;;;;34.20;19.92;;;;;;;;;;6221559;28;20170;-75
2024/01/04 04:07:53;;;;;;;33.05;19.30;;;;;;;;;;6255922;28;20053;-74
2024/01/04 04:10:56;;;;;;;32.17;18.50;;;;;;;;;;6227480;28;20105;-75
2024/01/04 04:13:58;;;;;;;31.38;18.83;;;;;;;;;;6224981;28;20185;-74
2024/01/04 04:17:00;;;;;;;31.45;19.15;;;;;;;;;;6228076;28;20108;-74
2024/01/04 04:20:03;;;;;;;31.70;19.08;;;;;;;;;;6235393;28;20057;-75
2024/01/04 04:23:05;;;;;;;31.10;19.13;;;;;;;;;;6251023;28;20061;-75
2024/01/04 04:26:09;;;;;;;32.28;18.58;;;;;;;;;;6281405;28;20254;-74
2024/01/04 04:29:11;;;;;;;32.67;19.53;;;;;;;;;;6250543;28;20099;-75
2024/01/04 04:32:12;;;;;;;34.20;19.65;;;;;;;;;;6251115;28;20686;-75
2024/01/04 04:35:14;;;;;;;30.63;18.48;;;;;;;;;;6250518;28;20054;-74
2024/01/04 04:38:16;;;;;;;29.90;18.25;;;;;;;;;;6251953;28;20287;-75
2024/01/04 04:41:20;;;;;;;36.97;19.92;;;;;;;;;;6238739;28;20065;-75
2024/01/04 04:44:23;;;;;;;32.67;19.27;;;;;;;;;;6225130;28;20068;-74
2024/01/04 04:47:25;;;;;;;36.50;19.40;;;;;;;;;;6223050;28;20053;-74
2024/01/04 04:50:27;;;;;;;28.88;18.13;;;;;;;;;;6222669;28;20399;-74
2024/01/04 04:53:28;;;;;;;31.80;18.80;;;;;;;;;;6224432;28;20045;-75
2024/01/04 04:56:32;;;;;;;33.00;18.83;;;;;;;;;;6224455;28;20053;-74
2024/01/04 04:59:33;;;;;;;33.65;19.77;;;;;;;;;;6224058;28;20053;-74
2024/01/04 05:02:35;;;;;;;29.65;17.70;;;;;;;;;;6225122;28;20403;-74
2024/01/04 05:05:37;;;;;;;31.42;18.40;;;;;;;;;;6241109;28;20082;-74
2024/01/04 05:08:39;;;;;;;32.83;19.05;;;;;;;;;;6261819;28;20108;-74
2024/01/04 05:11:43;;;;;;;32.65;19.58;;;;;;;;;;6231094;28;20049;-75
2024/01/04 05:14:45;;;;;;;32.40;18.02;;;;;;;;;;6228583;28;20096;-74
2024/01/04 05:17:47;;;;;;;34.22;19.05;;;;;;;;;;6230524;28;20073;-74
2024/01/04 05:20:49;;;;;;;30.50;17.40;;;;;;;;;;6230234;28;20240;-74
2024/01/04 05:23:50;;;;;;;31.30;18.73;;;;;;;;;;6230808;28;20233;-74
2024/01/04 05:26:54;;;;;;;29.60;17.85;;;;;;;;;;6231846;28;20348;-75
2024/01/04 05:29:56;;;;;;;29.17;17.30;;;;;;;;;;6230157;28;20054;-74
2024/01/04 05:32:58;;;;;;;29.50;17.33;;;;;;;;;;6226646;28;20336;-73
2024/01/04 05:35:59;;;;;;;29.35;17.05;;;;;;;;;;6231889;28;20057;-73
2024/01/04 05:39:01;;;;;;;29.23;16.63;;;;;;;;;;6231606;28;20533;-75
2024/01/04 05:42:05;;;;;;;32.13;17.60;;;;;;;;;;6230370;28;20054;-75
2024/01/04 05:45:08;;;;;;;30.52;17.23;;;;;;;;;;6232218;28;20375;-74
2024/01/04 05:48:10;;;;;;;27.58;16.50;;;;;;;;;;6230944;28;20049;-74
2024/01/04 05:51:11;;;;;;;28.52;17.67;;;;;;;;;;6230912;28;20054;-74
2024/01/04 05:54:13;;;;;;;28.33;16.90;;;;;;;;;;6247807;28;20045;-74
2024/01/04 05:57:17;;;;;;;26.02;15.35;;;;;;;;;;6255983;28;20128;-74
2024/01/04 06:00:19;;;;;;;25.73;16.98;;;;;;;;;;6254025;28;20069;-74
2024/01/04 06:03:22;;;;;;;24.88;15.60;;;;;;;;;;6255450;28;20087;-75
2024/01/04 06:06:24;;;;;;;27.67;14.93;;;;;;;;;;6254964;28;20299;-75
2024/01/04 06:09:25;;;;;;;29.70;17.10;;;;;;;;;;6254819;28;20060;-74
2024/01/04 06:12:29;;;;;;;32.22;16.08;;;;;;;;;;6251251;28;20122;-74
2024/01/04 06:15:31;;;;;;;24.20;15.60;;;;;;;;;;6254260;28;20375;-75
2024/01/04 06:18:33;;;;;;;26.45;16.08;;;;;;;;;;6252192;28;20052;-75
2024/01/04 06:21:34;;;;;;;23.83;14.75;;;;;;;;;;6255790;28;20212;-74
2024/01/04 06:24:36;;;;;;;22.33;14.00;;;;;;;;;;6251288;28;20045;-74
2024/01/04 06:27:40;;;;;;;24.08;13.63;;;;;;;;;;6254572;28;20045;-75
2024/01/04 06:30:42;;;;;;;22.40;12.70;;;;;;;;;;6253462;28;20052;-75
2024/01/04 06:33:44;;;;;;;22.88;13.23;;;;;;;;;;6248708;28;20050;-75
2024/01/04 06:36:47;;;;;;;19.98;12.10;;;;;;;;;;6254508;28;20232;-75
2024/01/04 06:39:50;;;;;;;18.45;11.52;;;;;;;;;;6268986;28;20371;-76
2024/01/04 06:42:55;;;;;;;19.90;11.90;;;;;;;;;;6255268;28;20049;-79
2024/01/04 06:45:58;;;;;;;21.08;11.63;;;;;;;;;;6230422;28;20057;-78
2024/01/04 06:49:00;;;;;;;18.48;11.02;;;;;;;;;;6226490;28;20141;-79
2024/01/04 06:52:03;;;;;;;20.85;11.88;;;;;;;;;;6228766;28;20237;-79
2024/01/04 06:55:06;;;;;;;24.60;13.65;;;;;;;;;;6228148;28;20045;-79
2024/01/04 06:58:09;;;;;;;17.38;11.25;;;;;;;;;;6227446;28;20089;-79
2024/01/04 07:01:13;;;;;;;19.85;12.02;;;;;;;;;;6230140;28;20084;-79
2024/01/04 07:04:14;;;;;;;17.85;10.80;;;;;;;;;;6250829;28;20124;-79
2024/01/04 07:07:16;;;;;;;19.60;11.52;;;;;;;;;;6254381;28;20832;-79
2024/01/04 07:10:18;;;;;;;17.90;11.82;;;;;;;;;;6253117;28;20290;-79
2024/01/04 07:13:25;;;;;;;18.55;12.00;;;;;;;;;;6285617;28;20060;-79
2024/01/04 07:16:27;;;;;;;19.20;11.75;;;;;;;;;;6253104;28;20112;-79
2024/01/04 07:19:28;;;;;;;19.65;11.63;;;;;;;;;;6252561;28;20080;-79
2024/01/04 07:22:30;;;;;;;20.15;12.35;;;;;;;;;;6248497;28;20049;-79
2024/01/04 07:25:34;;;;;;;18.85;11.70;;;;;;;;;;6251565;28;20045;-79
2024/01/04 07:28:37;;;;;;;19.13;11.63;;;;;;;;;;6252313;28;20128;-78
2024/01/04 07:31:40;;;;;;;18.55;12.10;;;;;;;;;;6251909;28;20235;-79
2024/01/04 07:34:43;;;;;;;21.02;12.43;;;;;;;;;;6253495;28;20069;-79
2024/01/04 07:37:45;;;;;;;19.35;12.77;;;;;;;;;;6280491;28;20065;-79
2024/01/04 07:40:47;;;;;;;18.90;11.80;;;;;;;;;;6249514;28;20072;-79
2024/01/04 07:43:50;;;;;;;18.77;12.23;;;;;;;;;;6252413;28;20251;-78
2024/01/04 07:46:52;;;;;;;22.55;12.45;;;;;;;;;;6249961;28;20049;-79
2024/01/04 07:49:54;;;;;;;17.75;11.15;;;;;;;;;;6251139;28;20060;-79
2024/01/04 07:52:56;;;;;;;19.17;12.55;;;;;;;;;;6253477;28;20061;-74
2024/01/04 07:55:58;;;;;;;17.92;11.60;;;;;;;;;;6252491;28;20107;-74
2024/01/04 07:59:02;;;;;;;17.98;11.30;;;;;;;;;;6252659;28;20359;-74
2024/01/04 08:02:04;;;;;;;16.90;11.20;;;;;;;;;;6252332;28;20104;-74
2024/01/04 08:05:06;;;;;;;16.17;11.10;;;;;;;;;;6251710;28;20084;-74
2024/01/04 08:08:08;;;;;;;18.05;10.45;;;;;;;;;;6250942;28;20053;-74
2024/01/04 08:11:10;;;;;;;15.07;9.75;;;;;;;;;;6250542;28;20565;-75
2024/01/04 08:14:16;;;;;;;17.30;10.55;;;;;;;;;;6252879;28;20049;-73
2024/01/04 08:17:18;;;;;;;16.25;10.27;;;;;;;;;;6247605;28;20049;-75
2024/01/04 08:20:20;;;;;;;14.88;9.43;;;;;;;;;;6251741;28;20056;-75
2024/01/04 08:23:24;;;;;;;16.00;9.88;;;;;;;;;;6250019;28;20103;-74
2024/01/04 08:26:27;;;;;;;16.45;9.48;;;;;;;;;;6252170;28;20379;-73
2024/01/04 08:29:30;;;;;;;17.13;9.32;;;;;;;;;;6250765;28;20057;-75
2024/01/04 08:32:32;;;;;;;13.88;8.70;;;;;;;;;;6249232;28;20279;-74
2024/01/04 08:35:34;;;;;;;14.38;8.35;;;;;;;;;;6251629;28;20060;-74
2024/01/04 08:38:37;;;;;;;14.68;8.02;;;;;;;;;;6247996;28;20041;-74
2024/01/04 08:41:38;;;;;;;15.55;7.78;;;;;;;;;;6252011;28;20457;-72
2024/01/04 08:44:42;;;;;;;14.38;7.82;;;;;;;;;;6256772;28;20060;-74
2024/01/04 08:47:44;;;;;;;12.30;7.50;;;;;;;;;;6256626;28;20045;-73
2024/01/04 08:50:46;;;;;;;14.18;8.23;;;;;;;;;;6285321;28;20061;-75
2024/01/04 08:53:49;;;;;;;12.75;8.00;;;;;;;;;;6253343;28;20050;-73
2024/01/04 08:56:51;;;;;;;13.55;7.75;;;;;;;;;;6256368;28;20061;-74
2024/01/04 08:59:54;;;;;;;15.80;9.13;;;;;;;;;;6256593;28;20062;-74
2024/01/04 09:02:56;;;;;;;13.45;9.02;;;;;;;;;;6257557;28;20339;-74
2024/01/04 09:05:58;;;;;;;14.25;8.85;;;;;;;;;;6254801;28;20050;-75
2024/01/04 09:09:05;;;;;;;15.52;9.88;;;;;;;;;;6253751;28;20065;-74
2024/01/04 09:12:08;;;;;;;17.02;10.13;;;;;;;;;;6254789;28;20107;-75
2024/01/04 09:15:12;;;;;;;15.77;9.95;;;;;;;;;;6255575;28;20080;-75
2024/01/04 09:18:14;;;;;;;17.88;9.65;;;;;;;;;;6256979;28;20363;-75
2024/01/04 09:21:16;;;;;;;15.98;10.10;;;;;;;;;;6254368;28;20057;-74
2024/01/04 09:24:20;;;;;;;14.13;9.18;;;;;;;;;;6256279;28;20053;-76
2024/01/04 09:27:23;;;;;;;15.68;9.55;;;;;;;;;;6256392;28;20064;-74
2024/01/04 09:30:29;;;;;;;15.05;9.90;;;;;;;;;;6253415;28;20143;-74
2024/01/04 09:33:31;;;;;;;14.77;8.93;;;;;;;;;;6255592;28;20041;-74
2024/01/04 09:36:32;;;;;;;15.50;9.60;;;;;;;;;;6286219;28;20057;-72
2024/01/04 09:39:34;;;;;;;14.90;8.85;;;;;;;;;;6255633;28;20064;-74
2024/01/04 09:42:38;;;;;;;15.95;9.63;;;;;;;;;;6254185;28;20072;-73
2024/01/04 09:45:42;;;;;;;13.10;9.05;;;;;;;;;;6253644;28;20053;-75
2024/01/04 09:48:49;;;;;;;13.50;8.52;;;;;;;;;;6256225;28;20105;-74
2024/01/04 09:51:51;;;;;;;14.05;9.23;;;;;;;;;;6285235;28;20053;-73
2024/01/04 09:54:54;;;;;;;14.52;8.57;;;;;;;;;;6255515;28;20139;-74
2024/01/04 09:57:56;;;;;;;13.95;9.02;;;;;;;;;;6255260;28;20314;-75
2024/01/04 10:01:01;;;;;;;12.80;8.77;;;;;;;;;;6255412;28;20053;-74
2024/01/04 10:04:06;;;;;;;12.02;8.30;;;;;;;;;;6256990;28;20045;-73
2024/01/04 10:07:08;;;;;;;11.75;8.13;;;;;;;;;;6251439;28;20124;-73
2024/01/04 10:10:15;;;;;;;9.82;7.68;;;;;;;;;;6253872;28;20049;-73
2024/01/04 10:13:18;;;;;;;10.45;7.68;;;;;;;;;;6246418;28;20052;-74
2024/01/04 10:16:22;;;;;;;10.93;7.00;;;;;;;;;;6255539;28;20072;-74
2024/01/04 10:19:24;;;;;;;11.10;7.43;;;;;;;;;;6253399;28;20049;-74
2024/01/04 10:22:26;;;;;;;10.40;7.60;;;;;;;;;;6252101;28;20061;-74
2024/01/04 10:25:28;;;;;;;12.30;8.15;;;;;;;;;;6255377;28;20362;-75
2024/01/04 10:28:30;;;;;;;9.77;6.95;;;;;;;;;;6252085;28;20345;-74
2024/01/04 10:31:34;;;;;;;11.85;7.65;;;;;;;;;;6254786;28;20215;-74
2024/01/04 10:34:38;;;;;;;11.20;8.13;;;;;;;;;;6254237;28;20135;-74
2024/01/04 10:37:40;;;;;;;12.70;8.63;;;;;;;;;;6237754;28;20072;-73
2024/01/04 10:40:42;;;;;;;12.98;8.02;;;;;;;;;;6254277;28;20335;-74
2024/01/04 10:43:44;;;;;;;11.18;7.35;;;;;;;;;;6253567;28;20259;-74
2024/01/04 10:46:47;;;;;;;11.90;8.48;;;;;;;;;;6252217;28;20433;-75
2024/01/04 10:49:50;;;;;;;12.38;8.10;;;;;;;;;;6254160;28;20053;-74
2024/01/04 10:52:54;;;;;;;12.83;8.27;;;;;;;;;;6254215;28;20053;-74
2024/01/04 10:55:56;;;;;;;11.90;7.95;;;;;;;;;;6254217;28;20045;-73
2024/01/04 10:58:58;;;;;;;10.23;7.85;;;;;;;;;;6253728;28;20049;-75
2024/01/04 11:02:02;;;;;;;11.05;7.85;;;;;;;;;;6254055;28;20120;-74
2024/01/04 11:05:05;;;;;;;12.70;8.35;;;;;;;;;;6251720;28;20099;-74
2024/01/04 11:08:08;;;;;;;12.93;8.63;;;;;;;;;;6250771;28;20595;-73
2024/01/04 11:11:11;;;;;;;11.77;8.35;;;;;;;;;;6254195;28;20402;-74
2024/01/04 11:14:13;;;;;;;9.38;6.90;;;;;;;;;;6254519;28;20356;-73
2024/01/04 11:17:28;;;;;;;10.35;6.72;;;;;;;;;;6253098;28;20056;-73
2024/01/04 11:20:43;;;;;;;10.40;7.28;;;;;;;;;;6251487;28;20059;-73
2024/01/04 11:24:00;;;;;;;10.15;6.20;;;;;;;;;;6269041;28;20068;-78
2024/01/04 11:27:05;;;;;;;9.88;6.95;;;;;;;;;;6250685;28;20260;-78
2024/01/04 11:30:09;;;;;;;10.70;6.78;;;;;;;;;;6252035;28;20433;-79
2024/01/04 11:33:13;;;;;;;8.77;6.70;;;;;;;;;;6252291;28;20110;-79
2024/01/04 11:36:18;;;;;;;10.27;6.32;;;;;;;;;;6253967;28;20057;-80
2024/01/04 11:39:27;;;;;;;11.85;5.40;;;;;;;;;;6254884;28;20069;-79
2024/01/04 11:42:33;;;;;;;9.48;5.95;;;;;;;;;;6215772;28;20060;-80
2024/01/04 11:45:35;;;;;;;9.95;6.82;;;;;;;;;;6227632;28;20054;-80
2024/01/04 11:48:48;;;;;;;9.13;6.60;;;;;;;;;;6246083;28;20061;-79
2024/01/04 11:51:50;;;;;;;11.45;6.85;;;;;;;;;;6250862;28;20255;-79
2024/01/04 11:54:54;;;;;;;9.52;6.22;;;;;;;;;;6267292;28;20045;-80
2024/01/04 11:58:05;;;;;;;;;;;;;;;;;;6251593;28;20053;-80
2024/01/04 12:01:07;;;;;;;10.30;7.45;;;;;;;;;;6228896;28;19932;-80
2024/01/04 12:04:12;;;;;;;14.15;7.10;;;;;;;;;;6229266;28;20253;-80
2024/01/04 12:07:15;;;;;;;8.98;6.22;;;;;;;;;;6250387;28;20128;-79
2024/01/04 12:10:17;;;;;;;9.27;6.72;;;;;;;;;;6227662;28;20121;-81
2024/01/04 12:13:19;;;;;;;9.68;6.05;;;;;;;;;;6244289;28;20050;-79
2024/01/04 12:16:20;;;;;;;10.35;6.40;;;;;;;;;;6227641;28;20347;-79
2024/01/04 12:19:24;;;;;;;10.05;6.28;;;;;;;;;;6226964;28;20097;-79
2024/01/04 12:22:25;;;;;;;7.80;5.60;;;;;;;;;;6228494;28;20061;-79
2024/01/04 12:25:28;;;;;;;7.82;5.60;;;;;;;;;;6226209;28;20046;-79
2024/01/04 12:28:30;;;;;;;7.20;5.53;;;;;;;;;;6211286;28;20053;-79
2024/01/04 12:31:32;;;;;;;7.68;5.68;;;;;;;;;;6227509;28;20053;-78
2024/01/04 12:34:35;;;;;;;7.57;5.13;;;;;;;;;;6226976;28;20061;-74
2024/01/04 12:37:37;;;;;;;8.00;5.07;;;;;;;;;;6226960;28;20329;-73
2024/01/04 12:40:40;;;;;;;7.00;5.50;;;;;;;;;;6226740;28;20379;-73
2024/01/04 12:43:42;;;;;;;7.47;5.30;;;;;;;;;;6226248;28;20042;-74
2024/01/04 12:46:46;;;;;;;7.28;5.88;;;;;;;;;;6210261;28;20057;-73
2024/01/04 12:49:56;;;;;;;10.77;6.22;;;;;;;;;;6228095;28;20073;-74
2024/01/04 12:52:58;;;;;;;8.02;6.15;;;;;;;;;;6225440;28;20057;-73
2024/01/04 12:56:00;;;;;;;9.15;6.20;;;;;;;;;;6227454;28;20058;-73
2024/01/04 12:59:04;;;;;;;7.72;5.85;;;;;;;;;;6226651;28;20259;-74
2024/01/04 13:02:06;;;;;;;9.48;5.45;;;;;;;;;;6226526;28;20045;-73
2024/01/04 13:05:11;;;;;;;8.25;5.95;;;;;;;;;;6227580;28;20062;-74
2024/01/04 13:08:13;;;;;;;10.02;5.90;;;;;;;;;;6225531;28;20096;-73
2024/01/04 13:11:15;;;;;;;10.35;6.38;;;;;;;;;;6224931;28;20057;-74
2024/01/04 13:14:17;;;;;;;8.55;5.63;;;;;;;;;;6226560;28;20343;-74
2024/01/04 13:17:19;;;;;;;8.00;5.25;;;;;;;;;;6226834;28;20052;-75
2024/01/04 13:20:22;;;;;;;7.43;5.10;;;;;;;;;;6255058;28;20056;-74
2024/01/04 13:23:24;;;;;;;10.02;4.97;;;;;;;;;;6226582;28;20050;-74
2024/01/04 13:26:26;;;;;;;7.63;4.93;;;;;;;;;;6226611;28;20069;-74
2024/01/04 13:29:28;;;;;;;7.18;4.70;;;;;;;;;;6261175;28;20049;-73
2024/01/04 13:32:30;;;;;;;8.20;4.80;;;;;;;;;;6226168;28;20053;-74
2024/01/04 13:35:33;;;;;;;7.85;4.55;;;;;;;;;;6230988;28;20042;-74
2024/01/04 13:38:35;;;;;;;8.73;5.05;;;;;;;;;;6230645;28;20046;-74
2024/01/04 13:41:37;;;;;;;7.53;5.07;;;;;;;;;;6231702;28;20057;-72
2024/01/04 13:44:38;;;;;;;7.95;4.88;;;;;;;;;;6230775;28;20054;-73
2024/01/04 13:47:40;;;;;;;6.25;4.63;;;;;;;;;;6230160;28;20334;-73
2024/01/04 13:50:45;;;;;;;6.22;4.45;;;;;;;;;;6231685;28;20088;-73
2024/01/04 13:53:47;;;;;;;7.18;4.53;;;;;;;;;;6227940;28;20052;-73
2024/01/04 13:56:49;;;;;;;7.00;4.80;;;;;;;;;;6230903;28;20120;-74
2024/01/04 13:59:51;;;;;;;7.70;4.13;;;;;;;;;;6229060;28;20104;-74
2024/01/04 14:02:53;;;;;;;7.40;4.90;;;;;;;;;;6224226;28;20137;-74
2024/01/04 14:05:57;;;;;;;7.72;5.38;;;;;;;;;;6229788;28;20038;-74
2024/01/04 14:08:58;;;;;;;;;;;;;;;;;;6232141;28;20058;-73
2024/01/04 14:12:00;;;;;;;10.77;5.13;;;;;;;;;;6231246;28;20055;-74
2024/01/04 14:15:04;;;;;;;8.57;5.05;;;;;;;;;;6231134;28;20050;-74
2024/01/04 14:18:06;;;;;;;;;;;;;;;;;;6230344;28;20065;-73
2024/01/04 14:21:09;;;;;;;7.57;5.07;;;;;;;;;;6228734;28;19956;-73
2024/01/04 14:24:11;;;;;;;6.55;4.38;;;;;;;;;;6229518;28;20054;-73
2024/01/04 14:27:13;;;;;;;6.88;5.22;;;;;;;;;;6228931;28;20053;-73
2024/01/04 14:30:15;;;;;;;6.97;4.75;;;;;;;;;;6247260;28;20057;-73
2024/01/04 14:33:17;;;;;;;8.32;4.72;;;;;;;;;;6252958;28;20053;-73
2024/01/04 14:36:21;;;;;;;6.05;4.55;;;;;;;;;;6235552;28;20054;-73
2024/01/04 14:39:24;;;;;;;6.40;4.35;;;;;;;;;;6226816;28;20124;-74
2024/01/04 14:42:28;;;;;;;7.28;4.53;;;;;;;;;;6230273;28;20054;-73
2024/01/04 14:45:30;;;;;;;8.40;4.20;;;;;;;;;;6226954;28;20057;-74
2024/01/04 14:48:32;;;;;;;7.43;4.28;;;;;;;;;;6228946;28;20053;-74
2024/01/04 14:51:36;;;;;;;7.30;4.80;;;;;;;;;;6228567;28;20058;-74
2024/01/04 14:54:39;;;;;;;;;;;;;;;;;;6226472;28;20589;-78
2024/01/04 14:57:42;;;;;;;9.03;4.33;;;;;;;;;;6261153;28;19965;-79
2024/01/04 15:00:44;;;;;;;8.50;4.95;;;;;;;;;;6231228;28;20057;-78
2024/01/04 15:03:48;;;;;;;8.10;5.15;;;;;;;;;;6230761;28;20096;-79
2024/01/04 15:06:51;;;;;;;7.28;4.60;;;;;;;;;;6226968;28;20326;-78
2024/01/04 15:09:53;;;;;;;8.70;4.43;;;;;;;;;;6225944;28;20247;-78
2024/01/04 15:12:55;;;;;;;8.65;5.00;;;;;;;;;;6226574;28;20256;-78
2024/01/04 15:15:57;;;;;;;7.82;4.75;;;;;;;;;;6254401;28;20061;-76
2024/01/04 15:18:59;;;;;;;8.27;4.70;;;;;;;;;;6217070;28;20062;-78
2024/01/04 15:22:02;;;;;;;8.18;5.35;;;;;;;;;;6241048;28;20061;-76
2024/01/04 15:25:04;;;;;;;8.20;4.30;;;;;;;;;;6229204;28;20340;-77
2024/01/04 15:28:09;;;;;;;8.10;4.90;;;;;;;;;;6258364;28;20045;-77
2024/01/04 15:31:13;;;;;;;8.25;5.22;;;;;;;;;;6230391;28;20057;-77
2024/01/04 15:34:16;;;;;;;8.18;5.13;;;;;;;;;;6250394;28;20106;-80
2024/01/04 15:37:19;;;;;;;11.18;4.68;;;;;;;;;;6252642;28;20068;-79
2024/01/04 15:40:21;;;;;;;9.88;4.95;;;;;;;;;;6252492;28;20052;-77
2024/01/04 15:43:24;;;;;;;8.77;4.68;;;;;;;;;;6253843;28;20083;-77
2024/01/04 15:46:26;;;;;;;8.98;4.68;;;;;;;;;;6250450;28;20056;-78
2024/01/04 15:49:28;;;;;;;10.30;5.20;;;;;;;;;;6252825;28;20152;-78
2024/01/04 15:52:31;;;;;;;10.50;5.20;;;;;;;;;;6249099;28;20068;-79
2024/01/04 15:55:33;;;;;;;11.68;5.25;;;;;;;;;;6250137;28;20061;-79
2024/01/04 15:58:35;;;;;;;8.57;5.15;;;;;;;;;;6253802;28;20061;-77
2024/01/04 16:01:37;;;;;;;12.70;4.97;;;;;;;;;;6252226;28;20057;-79
2024/01/04 16:04:39;;;;;;;10.88;5.82;;;;;;;;;;6249366;28;20053;-75
2024/01/04 16:07:43;;;;;;;9.30;5.22;;;;;;;;;;6249462;28;20530;-73
2024/01/04 16:10:45;;;;;;;9.68;5.28;;;;;;;;;;6249453;28;20103;-75
2024/01/04 16:13:47;;;;;;;10.85;4.88;;;;;;;;;;6251516;28;20300;-75
2024/01/04 16:16:49;;;;;;;8.73;4.55;;;;;;;;;;6250649;28;20343;-75
2024/01/04 16:19:51;;;;;;;8.73;5.35;;;;;;;;;;6252446;28;20075;-74
2024/01/04 16:22:54;;;;;;;9.18;5.13;;;;;;;;;;6250637;28;20057;-75
2024/01/04 16:25:56;;;;;;;9.45;6.22;;;;;;;;;;6249178;28;20041;-74
2024/01/04 16:28:58;;;;;;;29.83;14.48;;;;;;;;;;6251327;28;20095;-75
2024/01/04 16:32:00;;;;;;;16.75;9.15;;;;;;;;;;6251826;28;20287;-74
2024/01/04 16:35:02;;;;;;;14.25;6.85;;;;;;;;;;6249967;28;20065;-75
2024/01/04 16:38:07;;;;;;;8.85;5.30;;;;;;;;;;6249800;28;20064;-75
2024/01/04 16:41:10;;;;;;;10.35;5.43;;;;;;;;;;6252489;28;20046;-75
2024/01/04 16:44:12;;;;;;;9.07;5.53;;;;;;;;;;6251093;28;20069;-75
2024/01/04 16:47:14;;;;;;;9.77;5.90;;;;;;;;;;6248298;28;20057;-74
2024/01/04 16:50:16;;;;;;;13.05;5.95;;;;;;;;;;6250615;28;20080;-75
2024/01/04 16:53:19;;;;;;;7.75;4.95;;;;;;;;;;6249616;28;20053;-74
2024/01/04 16:56:20;;;;;;;13.18;5.13;;;;;;;;;;6250149;28;20064;-75
2024/01/04 16:59:22;;;;;;;10.85;5.53;;;;;;;;;;6252596;28;20045;-75
2024/01/04 17:02:25;;;;;;;11.13;4.80;;;;;;;;;;6250524;28;20203;-74
2024/01/04 17:05:27;;;;;;;6.80;4.82;;;;;;;;;;6270903;28;20042;-75
2024/01/04 17:08:30;;;;;;;12.27;5.38;;;;;;;;;;6261620;28;20053;-75
2024/01/04 17:11:32;;;;;;;8.52;5.63;;;;;;;;;;6257038;28;20053;-73
2024/01/04 17:14:36;;;;;;;8.40;4.88;;;;;;;;;;6238725;28;20081;-75
2024/01/04 17:17:38;;;;;;;8.55;5.20;;;;;;;;;;6255029;28;20578;-75
2024/01/04 17:20:40;;;;;;;11.05;5.82;;;;;;;;;;6252373;28;20060;-75
2024/01/04 17:23:43;;;;;;;11.00;5.80;;;;;;;;;;6250814;28;20053;-74
2024/01/04 17:26:45;;;;;;;12.18;6.15;;;;;;;;;;6255554;28;20053;-74
2024/01/04 17:29:47;;;;;;;8.73;5.88;;;;;;;;;;6254003;28;20090;-75
2024/01/04 17:32:52;;;;;;;9.50;6.03;;;;;;;;;;6254869;28;20060;-75
2024/01/04 17:35:59;;;;;;;8.30;5.80;;;;;;;;;;6256605;28;20394;-75
2024/01/04 17:39:04;;;;;;;10.65;5.65;;;;;;;;;;6256556;28;20053;-74
2024/01/04 17:42:06;;;;;;;10.02;5.72;;;;;;;;;;6254898;28;20099;-74
2024/01/04 17:45:10;;;;;;;8.43;5.22;;;;;;;;;;6254804;28;20057;-75
2024/01/04 17:48:12;;;;;;;12.25;6.35;;;;;;;;;;6254990;28;20049;-74
2024/01/04 17:51:16;;;;;;;10.32;5.82;;;;;;;;;;6255393;28;20057;-75
2024/01/04 17:54:20;;;;;;;10.75;5.85;;;;;;;;;;6253784;28;20124;-75
2024/01/04 17:57:23;;;;;;;9.20;5.68;;;;;;;;;;6253708;28;20053;-75